sensor_id;sensor_type;location;lat;lon;timestamp;pressure;altitude;pressure_sealevel;temperature;humidity
18697;BME280;22617;43.690;27.956;2024-01-16T00:00:12;97207.59;;;7.41;100.00
18697;BME280;22617;43.690;27.956;2024-01-16T00:05:16;97205.09;;;7.38;100.00
18697;BME280;22617;43.690;27.956;2024-01-16T00:10:20;97196.69;;;7.26;100.00
18697;BME280;22617;43.690;27.956;2024-01-16T00:15:24;97183.75;;;7.24;100.00
18697;BME280;22617;43.690;27.956;2024-01-16T00:20:28;97192.56;;;7.17;100.00
18697;BME280;22617;43.690;27.956;2024-01-16T00:25:32;97196.81;;;7.20;100.00
18697;BME280;22617;43.690;27.956;2024-01-16T00:30:37;97193.63;;;7.07;100.00
18697;BME280;22617;43.690;27.956;2024-01-16T00:35:41;97186.41;;;7.23;100.00
18697;BME280;22617;43.690;27.956;2024-01-16T00:40:44;97181.63;;;7.03;100.00
18697;BME280;22617;43.690;27.956;2024-01-16T00:45:49;97180.00;;;6.96;100.00
18697;BME280;22617;43.690;27.956;2024-01-16T00:50:53;97169.53;;;7.02;100.00
18697;BME280;22617;43.690;27.956;2024-01-16T00:55:56;97165.50;;;6.89;100.00
18697;BME280;22617;43.690;27.956;2024-01-16T01:01:01;97155.13;;;6.89;100.00
18697;BME280;22617;43.690;27.956;2024-01-16T01:06:05;97164.66;;;6.87;100.00
18697;BME280;22617;43.690;27.956;2024-01-16T01:11:08;97150.25;;;6.72;100.00
18697;BME280;22617;43.690;27.956;2024-01-16T01:16:13;97151.78;;;6.84;100.00
18697;BME280;22617;43.690;27.956;2024-01-16T01:21:17;97138.84;;;6.84;100.00
18697;BME280;22617;43.690;27.956;2024-01-16T01:26:20;97138.00;;;6.82;100.00
18697;BME280;22617;43.690;27.956;2024-01-16T01:31:25;97131.97;;;6.81;100.00
18697;BME280;22617;43.690;27.956;2024-01-16T01:36:28;97138.09;;;6.77;100.00
18697;BME280;22617;43.690;27.956;2024-01-16T01:41:32;97132.09;;;6.75;100.00
18697;BME280;22617;43.690;27.956;2024-01-16T01:46:37;97136.25;;;6.82;100.00
18697;BME280;22617;43.690;27.956;2024-01-16T01:51:43;97127.78;;;6.76;100.00
18697;BME280;22617;43.690;27.956;2024-01-16T01:56:47;97136.44;;;6.73;100.00
18697;BME280;22617;43.690;27.956;2024-01-16T02:01:53;97133.00;;;6.73;100.00
18697;BME280;22617;43.690;27.956;2024-01-16T02:06:57;97131.25;;;6.73;100.00
18697;BME280;22617;43.690;27.956;2024-01-16T02:12:01;97139.81;;;6.77;100.00
18697;BME280;22617;43.690;27.956;2024-01-16T02:17:06;97148.50;;;6.74;100.00
18697;BME280;22617;43.690;27.956;2024-01-16T02:22:15;97144.13;;;6.76;100.00
18697;BME280;22617;43.690;27.956;2024-01-16T02:27:22;97155.34;;;6.77;100.00
18697;BME280;22617;43.690;27.956;2024-01-16T02:32:25;97151.00;;;6.79;100.00
18697;BME280;22617;43.690;27.956;2024-01-16T02:37:29;97144.81;;;6.86;100.00
18697;BME280;22617;43.690;27.956;2024-01-16T02:42:34;97151.09;;;6.74;100.00
18697;BME280;22617;43.690;27.956;2024-01-16T02:47:39;97152.03;;;6.70;100.00
18697;BME280;22617;43.690;27.956;2024-01-16T02:52:43;97147.81;;;6.66;100.00
18697;BME280;22617;43.690;27.956;2024-01-16T02:57:47;97162.44;;;6.67;100.00
18697;BME280;22617;43.690;27.956;2024-01-16T03:02:51;97172.69;;;6.72;100.00
18697;BME280;22617;43.690;27.956;2024-01-16T03:07:54;97171.78;;;6.76;100.00
18697;BME280;22617;43.690;27.956;2024-01-16T03:12:59;97179.75;;;6.64;100.00
18697;BME280;22617;43.690;27.956;2024-01-16T03:18:03;97179.84;;;6.59;100.00
18697;BME280;22617;43.690;27.956;2024-01-16T03:23:07;97190.97;;;6.64;100.00
18697;BME280;22617;43.690;27.956;2024-01-16T03:28:12;97191.03;;;6.61;100.00
18697;BME280;22617;43.690;27.956;2024-01-16T03:33:16;97196.16;;;6.63;100.00
18697;BME280;22617;43.690;27.956;2024-01-16T03:38:19;97204.78;;;6.63;100.00
18697;BME280;22617;43.690;27.956;2024-01-16T03:43:24;97223.91;;;6.56;100.00
18697;BME280;22617;43.690;27.956;2024-01-16T03:48:28;97241.19;;;6.52;100.00
18697;BME280;22617;43.690;27.956;2024-01-16T03:53:32;97265.63;;;6.36;100.00
18697;BME280;22617;43.690;27.956;2024-01-16T03:58:37;97288.25;;;6.21;100.00
18697;BME280;22617;43.690;27.956;2024-01-16T04:03:40;97303.78;;;6.22;100.00
18697;BME280;22617;43.690;27.956;2024-01-16T04:08:44;97319.38;;;6.14;100.00
18697;BME280;22617;43.690;27.956;2024-01-16T04:13:49;97312.75;;;5.95;100.00
18697;BME280;22617;43.690;27.956;2024-01-16T04:18:53;97304.25;;;5.87;100.00
18697;BME280;22617;43.690;27.956;2024-01-16T04:23:56;97326.72;;;5.78;100.00
18697;BME280;22617;43.690;27.956;2024-01-16T04:29:01;97339.69;;;5.75;100.00
18697;BME280;22617;43.690;27.956;2024-01-16T04:34:04;97338.91;;;5.68;100.00
18697;BME280;22617;43.690;27.956;2024-01-16T04:39:08;97341.53;;;5.65;100.00
18697;BME280;22617;43.690;27.956;2024-01-16T04:44:13;97346.81;;;5.53;100.00
18697;BME280;22617;43.690;27.956;2024-01-16T04:49:16;97347.69;;;5.52;100.00
18697;BME280;22617;43.690;27.956;2024-01-16T04:54:20;97371.03;;;5.43;100.00
18697;BME280;22617;43.690;27.956;2024-01-16T04:59:25;97378.88;;;5.37;100.00
18697;BME280;22617;43.690;27.956;2024-01-16T05:04:28;97402.81;;;5.52;100.00
18697;BME280;22617;43.690;27.956;2024-01-16T05:09:32;97423.44;;;5.57;100.00
18697;BME280;22617;43.690;27.956;2024-01-16T05:14:37;97414.09;;;5.42;100.00
18697;BME280;22617;43.690;27.956;2024-01-16T05:19:41;97424.47;;;5.39;100.00
18697;BME280;22617;43.690;27.956;2024-01-16T05:24:44;97436.50;;;5.42;100.00
18697;BME280;22617;43.690;27.956;2024-01-16T05:29:49;97442.59;;;5.33;100.00
18697;BME280;22617;43.690;27.956;2024-01-16T05:34:52;97451.28;;;5.24;100.00
18697;BME280;22617;43.690;27.956;2024-01-16T05:39:56;97458.25;;;5.15;100.00
18697;BME280;22617;43.690;27.956;2024-01-16T05:45:01;97463.38;;;5.22;100.00
18697;BME280;22617;43.690;27.956;2024-01-16T05:50:06;97478.09;;;5.07;100.00
18697;BME280;22617;43.690;27.956;2024-01-16T05:55:11;97496.16;;;5.10;100.00
18697;BME280;22617;43.690;27.956;2024-01-16T06:00:17;97525.34;;;5.19;100.00
18697;BME280;22617;43.690;27.956;2024-01-16T06:05:21;97537.44;;;5.17;100.00
18697;BME280;22617;43.690;27.956;2024-01-16T06:10:25;97559.88;;;5.08;100.00
18697;BME280;22617;43.690;27.956;2024-01-16T06:15:29;97559.06;;;4.95;100.00
18697;BME280;22617;43.690;27.956;2024-01-16T06:20:33;97565.06;;;4.97;100.00
18697;BME280;22617;43.690;27.956;2024-01-16T06:25:36;97562.53;;;4.90;100.00
18697;BME280;22617;43.690;27.956;2024-01-16T06:30:45;97584.06;;;4.86;100.00
18697;BME280;22617;43.690;27.956;2024-01-16T06:35:49;97598.66;;;4.85;100.00
18697;BME280;22617;43.690;27.956;2024-01-16T06:40:55;97621.03;;;4.92;100.00
18697;BME280;22617;43.690;27.956;2024-01-16T06:46:00;97633.09;;;4.87;100.00
18697;BME280;22617;43.690;27.956;2024-01-16T06:51:04;97652.03;;;4.81;100.00
18697;BME280;22617;43.690;27.956;2024-01-16T06:56:10;97668.34;;;4.93;100.00
18697;BME280;22617;43.690;27.956;2024-01-16T07:01:15;97682.09;;;4.95;100.00
18697;BME280;22617;43.690;27.956;2024-01-16T07:06:19;97689.00;;;4.91;100.00
18697;BME280;22617;43.690;27.956;2024-01-16T07:11:22;97711.38;;;4.89;100.00
18697;BME280;22617;43.690;27.956;2024-01-16T07:16:27;97713.09;;;4.92;100.00
18697;BME280;22617;43.690;27.956;2024-01-16T07:21:31;97726.00;;;4.90;100.00
18697;BME280;22617;43.690;27.956;2024-01-16T07:26:36;97743.22;;;4.99;100.00
18697;BME280;22617;43.690;27.956;2024-01-16T07:31:41;97757.78;;;5.16;100.00
18697;BME280;22617;43.690;27.956;2024-01-16T07:36:44;97763.78;;;5.18;100.00
18697;BME280;22617;43.690;27.956;2024-01-16T07:41:48;97784.44;;;5.20;100.00
18697;BME280;22617;43.690;27.956;2024-01-16T07:46:53;97776.69;;;5.18;100.00
18697;BME280;22617;43.690;27.956;2024-01-16T07:51:56;97785.31;;;5.26;100.00
18697;BME280;22617;43.690;27.956;2024-01-16T07:56:59;97786.13;;;5.28;100.00
18697;BME280;22617;43.690;27.956;2024-01-16T08:02:04;97813.69;;;5.30;100.00
18697;BME280;22617;43.690;27.956;2024-01-16T08:07:08;97810.19;;;5.49;100.00
18697;BME280;22617;43.690;27.956;2024-01-16T08:12:11;97840.22;;;5.85;100.00
18697;BME280;22617;43.690;27.956;2024-01-16T08:17:16;97856.59;;;5.91;100.00
18697;BME280;22617;43.690;27.956;2024-01-16T08:22:20;97862.78;;;5.23;100.00
18697;BME280;22617;43.690;27.956;2024-01-16T08:27:24;97874.84;;;5.21;100.00
18697;BME280;22617;43.690;27.956;2024-01-16T08:32:29;97877.34;;;5.56;100.00
18697;BME280;22617;43.690;27.956;2024-01-16T08:37:33;97893.63;;;6.02;100.00
18697;BME280;22617;43.690;27.956;2024-01-16T08:42:37;97919.50;;;5.81;100.00
18697;BME280;22617;43.690;27.956;2024-01-16T08:47:42;97927.25;;;5.98;100.00
18697;BME280;22617;43.690;27.956;2024-01-16T08:52:45;97941.81;;;6.20;100.00
18697;BME280;22617;43.690;27.956;2024-01-16T08:57:49;97972.03;;;6.12;100.00
18697;BME280;22617;43.690;27.956;2024-01-16T09:02:54;97966.94;;;5.56;100.00
18697;BME280;22617;43.690;27.956;2024-01-16T09:07:58;97974.63;;;6.01;100.00
18697;BME280;22617;43.690;27.956;2024-01-16T09:13:01;97976.09;;;6.71;100.00
18697;BME280;22617;43.690;27.956;2024-01-16T09:18:06;97968.50;;;6.34;100.00
18697;BME280;22617;43.690;27.956;2024-01-16T09:23:10;97975.81;;;7.15;100.00
18697;BME280;22617;43.690;27.956;2024-01-16T09:28:15;98005.28;;;6.95;100.00
18697;BME280;22617;43.690;27.956;2024-01-16T09:33:19;98026.28;;;6.29;100.00
18697;BME280;22617;43.690;27.956;2024-01-16T09:38:23;98020.38;;;5.89;100.00
18697;BME280;22617;43.690;27.956;2024-01-16T09:43:27;98029.81;;;5.79;100.00
18697;BME280;22617;43.690;27.956;2024-01-16T09:48:32;98051.25;;;6.49;100.00
18697;BME280;22617;43.690;27.956;2024-01-16T09:53:36;98046.69;;;7.01;100.00
18697;BME280;22617;43.690;27.956;2024-01-16T09:58:40;98061.97;;;7.44;100.00
18697;BME280;22617;43.690;27.956;2024-01-16T10:03:45;98051.97;;;6.83;100.00
18697;BME280;22617;43.690;27.956;2024-01-16T10:08:49;98064.19;;;6.43;100.00
18697;BME280;22617;43.690;27.956;2024-01-16T10:13:54;98071.75;;;7.04;100.00
18697;BME280;22617;43.690;27.956;2024-01-16T10:19:04;98068.09;;;7.35;100.00
18697;BME280;22617;43.690;27.956;2024-01-16T10:24:12;98069.00;;;8.35;100.00
18697;BME280;22617;43.690;27.956;2024-01-16T10:29:17;98076.38;;;8.74;100.00
18697;BME280;22617;43.690;27.956;2024-01-16T10:34:22;98068.66;;;8.68;100.00
18697;BME280;22617;43.690;27.956;2024-01-16T10:39:27;98040.53;;;8.26;100.00
18697;BME280;22617;43.690;27.956;2024-01-16T10:44:53;98062.50;;;7.90;100.00
18697;BME280;22617;43.690;27.956;2024-01-16T10:49:59;98057.81;;;8.31;100.00
18697;BME280;22617;43.690;27.956;2024-01-16T10:55:06;98077.88;;;8.11;100.00
18697;BME280;22617;43.690;27.956;2024-01-16T11:00:13;98080.31;;;8.25;100.00
18697;BME280;22617;43.690;27.956;2024-01-16T11:05:20;98107.06;;;9.15;100.00
18697;BME280;22617;43.690;27.956;2024-01-16T11:10:28;98118.41;;;9.08;100.00
18697;BME280;22617;43.690;27.956;2024-01-16T11:15:32;98138.56;;;8.90;100.00
18697;BME280;22617;43.690;27.956;2024-01-16T11:20:39;98147.19;;;7.97;100.00
18697;BME280;22617;43.690;27.956;2024-01-16T11:25:48;98144.88;;;7.56;100.00
18697;BME280;22617;43.690;27.956;2024-01-16T11:30:52;98143.03;;;7.76;100.00
18697;BME280;22617;43.690;27.956;2024-01-16T11:35:58;98164.69;;;7.71;100.00
18697;BME280;22617;43.690;27.956;2024-01-16T11:41:02;98166.13;;;8.07;92.22
18697;BME280;22617;43.690;27.956;2024-01-16T11:46:07;98181.19;;;7.52;94.50
18697;BME280;22617;43.690;27.956;2024-01-16T11:51:24;98202.22;;;8.43;73.37
18697;BME280;22617;43.690;27.956;2024-01-16T11:56:55;98212.31;;;8.73;74.17
18697;BME280;22617;43.690;27.956;2024-01-16T12:02:10;98213.31;;;8.59;69.06
18697;BME280;22617;43.690;27.956;2024-01-16T12:07:17;98226.22;;;8.72;70.63
18697;BME280;22617;43.690;27.956;2024-01-16T12:12:21;98224.25;;;8.93;66.54
18697;BME280;22617;43.690;27.956;2024-01-16T12:17:26;98235.69;;;8.75;61.36
18697;BME280;22617;43.690;27.956;2024-01-16T12:22:32;98247.66;;;8.93;60.35
18697;BME280;22617;43.690;27.956;2024-01-16T12:27:36;98238.97;;;8.94;61.36
18697;BME280;22617;43.690;27.956;2024-01-16T12:32:41;98261.91;;;8.45;62.78
18697;BME280;22617;43.690;27.956;2024-01-16T12:38:01;98284.19;;;8.78;69.16
18697;BME280;22617;43.690;27.956;2024-01-16T12:43:07;98290.41;;;8.55;70.39
18697;BME280;22617;43.690;27.956;2024-01-16T12:48:12;98284.19;;;8.73;70.78
18697;BME280;22617;43.690;27.956;2024-01-16T12:53:21;98291.13;;;8.74;74.32
18697;BME280;22617;43.690;27.956;2024-01-16T12:58:32;98300.81;;;8.55;79.15
18697;BME280;22617;43.690;27.956;2024-01-16T13:03:38;98313.06;;;8.30;84.21
18697;BME280;22617;43.690;27.956;2024-01-16T13:08:44;98331.28;;;8.15;81.61
18697;BME280;22617;43.690;27.956;2024-01-16T13:13:48;98339.94;;;8.22;81.25
18697;BME280;22617;43.690;27.956;2024-01-16T13:19:00;98352.19;;;7.94;80.91
18697;BME280;22617;43.690;27.956;2024-01-16T13:24:07;98359.13;;;7.89;79.99
18697;BME280;22617;43.690;27.956;2024-01-16T13:29:11;98360.06;;;7.65;78.93
18697;BME280;22617;43.690;27.956;2024-01-16T13:34:15;98366.13;;;7.60;75.74
18697;BME280;22617;43.690;27.956;2024-01-16T13:39:23;98392.91;;;7.59;77.19
18697;BME280;22617;43.690;27.956;2024-01-16T13:44:27;98397.22;;;7.63;76.68
18697;BME280;22617;43.690;27.956;2024-01-16T13:49:31;98410.22;;;7.31;74.65
18697;BME280;22617;43.690;27.956;2024-01-16T13:54:38;98424.06;;;7.24;74.35
18697;BME280;22617;43.690;27.956;2024-01-16T13:59:44;98441.34;;;7.14;73.53
18697;BME280;22617;43.690;27.956;2024-01-16T14:04:48;98451.66;;;6.75;79.05
18697;BME280;22617;43.690;27.956;2024-01-16T14:09:53;98456.72;;;6.41;83.77
18697;BME280;22617;43.690;27.956;2024-01-16T14:14:57;98472.13;;;6.16;89.18
18697;BME280;22617;43.690;27.956;2024-01-16T14:20:04;98485.00;;;5.99;91.34
18697;BME280;22617;43.690;27.956;2024-01-16T14:25:10;98489.97;;;5.76;93.45
18697;BME280;22617;43.690;27.956;2024-01-16T14:30:15;98501.97;;;5.65;96.14
18697;BME280;22617;43.690;27.956;2024-01-16T14:35:20;98500.88;;;5.37;100.00
18697;BME280;22617;43.690;27.956;2024-01-16T14:40:25;98514.53;;;5.21;100.00
18697;BME280;22617;43.690;27.956;2024-01-16T14:45:30;98513.41;;;4.96;100.00
18697;BME280;22617;43.690;27.956;2024-01-16T14:50:34;98528.88;;;4.95;100.00
18697;BME280;22617;43.690;27.956;2024-01-16T14:55:39;98537.44;;;4.91;100.00
18697;BME280;22617;43.690;27.956;2024-01-16T15:00:42;98547.66;;;4.80;100.00
18697;BME280;22617;43.690;27.956;2024-01-16T15:05:48;98547.38;;;4.54;100.00
18697;BME280;22617;43.690;27.956;2024-01-16T15:10:53;98559.19;;;4.38;100.00
18697;BME280;22617;43.690;27.956;2024-01-16T15:15:56;98573.66;;;4.27;100.00
18697;BME280;22617;43.690;27.956;2024-01-16T15:21:00;98587.13;;;4.07;100.00
18697;BME280;22617;43.690;27.956;2024-01-16T15:26:05;98607.63;;;3.98;100.00
18697;BME280;22617;43.690;27.956;2024-01-16T15:31:09;98623.00;;;3.94;100.00
18697;BME280;22617;43.690;27.956;2024-01-16T15:36:15;98634.81;;;3.79;100.00
18697;BME280;22617;43.690;27.956;2024-01-16T15:41:20;98644.94;;;3.68;100.00
18697;BME280;22617;43.690;27.956;2024-01-16T15:46:23;98651.09;;;3.78;100.00
18697;BME280;22617;43.690;27.956;2024-01-16T15:51:27;98650.16;;;3.74;100.00
18697;BME280;22617;43.690;27.956;2024-01-16T15:56:32;98662.97;;;3.70;100.00
18697;BME280;22617;43.690;27.956;2024-01-16T16:01:36;98672.28;;;3.62;100.00
18697;BME280;22617;43.690;27.956;2024-01-16T16:06:40;98686.88;;;3.61;100.00
18697;BME280;22617;43.690;27.956;2024-01-16T16:11:45;98700.41;;;3.49;100.00
18697;BME280;22617;43.690;27.956;2024-01-16T16:16:51;98708.75;;;3.38;100.00
18697;BME280;22617;43.690;27.956;2024-01-16T16:21:54;98714.47;;;3.23;100.00
18697;BME280;22617;43.690;27.956;2024-01-16T16:26:59;98715.06;;;3.10;100.00
18697;BME280;22617;43.690;27.956;2024-01-16T16:32:05;98722.78;;;3.10;100.00
18697;BME280;22617;43.690;27.956;2024-01-16T16:37:09;98725.28;;;3.07;100.00
18697;BME280;22617;43.690;27.956;2024-01-16T16:42:15;98733.63;;;2.95;100.00
18697;BME280;22617;43.690;27.956;2024-01-16T16:47:21;98743.44;;;2.74;100.00
18697;BME280;22617;43.690;27.956;2024-01-16T16:52:24;98746.09;;;2.77;100.00
18697;BME280;22617;43.690;27.956;2024-01-16T16:57:29;98759.06;;;2.82;100.00
18697;BME280;22617;43.690;27.956;2024-01-16T17:02:35;98761.78;;;2.89;100.00
18697;BME280;22617;43.690;27.956;2024-01-16T17:07:38;98776.31;;;2.86;100.00
18697;BME280;22617;43.690;27.956;2024-01-16T17:12:44;98771.81;;;2.77;100.00
18697;BME280;22617;43.690;27.956;2024-01-16T17:17:51;98780.94;;;2.64;100.00
18697;BME280;22617;43.690;27.956;2024-01-16T17:22:55;98786.03;;;2.61;100.00
18697;BME280;22617;43.690;27.956;2024-01-16T17:28:00;98796.22;;;2.57;100.00
18697;BME280;22617;43.690;27.956;2024-01-16T17:33:04;98800.59;;;2.61;100.00
18697;BME280;22617;43.690;27.956;2024-01-16T17:38:09;98799.66;;;2.23;100.00
18697;BME280;22617;43.690;27.956;2024-01-16T17:43:14;98801.69;;;2.36;100.00
18697;BME280;22617;43.690;27.956;2024-01-16T17:48:18;98821.97;;;2.24;100.00
18697;BME280;22617;43.690;27.956;2024-01-16T17:53:22;98834.88;;;2.27;100.00
18697;BME280;22617;43.690;27.956;2024-01-16T17:58:28;98841.44;;;2.16;100.00
18697;BME280;22617;43.690;27.956;2024-01-16T18:03:32;98837.41;;;2.26;100.00
18697;BME280;22617;43.690;27.956;2024-01-16T18:08:45;98844.09;;;2.19;100.00
18697;BME280;22617;43.690;27.956;2024-01-16T18:13:52;98853.16;;;2.05;100.00
18697;BME280;22617;43.690;27.956;2024-01-16T18:18:57;98852.34;;;2.06;100.00
18697;BME280;22617;43.690;27.956;2024-01-16T18:24:01;98869.31;;;2.01;100.00
18697;BME280;22617;43.690;27.956;2024-01-16T18:29:07;98864.53;;;1.83;100.00
18697;BME280;22617;43.690;27.956;2024-01-16T18:34:10;98861.94;;;1.82;100.00
18697;BME280;22617;43.690;27.956;2024-01-16T18:39:17;98862.13;;;1.59;100.00
18697;BME280;22617;43.690;27.956;2024-01-16T18:44:26;98860.06;;;1.77;100.00
18697;BME280;22617;43.690;27.956;2024-01-16T18:49:29;98849.84;;;1.79;100.00
18697;BME280;22617;43.690;27.956;2024-01-16T18:54:34;98864.06;;;1.66;100.00
18697;BME280;22617;43.690;27.956;2024-01-16T18:59:39;98871.78;;;1.68;100.00
18697;BME280;22617;43.690;27.956;2024-01-16T19:04:47;98884.88;;;1.75;100.00
18697;BME280;22617;43.690;27.956;2024-01-16T19:09:51;98893.19;;;1.67;100.00
18697;BME280;22617;43.690;27.956;2024-01-16T19:14:55;98897.47;;;1.68;100.00
18697;BME280;22617;43.690;27.956;2024-01-16T19:20:00;98888.19;;;1.71;100.00
18697;BME280;22617;43.690;27.956;2024-01-16T19:25:07;98881.31;;;1.42;100.00
18697;BME280;22617;43.690;27.956;2024-01-16T19:30:15;98884.78;;;1.44;100.00
18697;BME280;22617;43.690;27.956;2024-01-16T19:35:22;98887.41;;;1.46;100.00
18697;BME280;22617;43.690;27.956;2024-01-16T19:40:25;98896.72;;;1.42;100.00
18697;BME280;22617;43.690;27.956;2024-01-16T19:45:31;98902.41;;;1.32;100.00
18697;BME280;22617;43.690;27.956;2024-01-16T19:50:35;98901.94;;;1.45;100.00
18697;BME280;22617;43.690;27.956;2024-01-16T19:55:41;98909.50;;;1.41;100.00
18697;BME280;22617;43.690;27.956;2024-01-16T20:00:46;98925.22;;;1.23;100.00
18697;BME280;22617;43.690;27.956;2024-01-16T20:05:50;98929.91;;;1.36;100.00
18697;BME280;22617;43.690;27.956;2024-01-16T20:10:54;98937.56;;;1.35;100.00
18697;BME280;22617;43.690;27.956;2024-01-16T20:15:58;98933.44;;;1.40;100.00
18697;BME280;22617;43.690;27.956;2024-01-16T20:21:03;98929.44;;;1.48;100.00
18697;BME280;22617;43.690;27.956;2024-01-16T20:26:07;98945.03;;;1.27;100.00
18697;BME280;22617;43.690;27.956;2024-01-16T20:31:12;98953.81;;;1.34;100.00
18697;BME280;22617;43.690;27.956;2024-01-16T20:36:16;98969.97;;;1.58;100.00
18697;BME280;22617;43.690;27.956;2024-01-16T20:41:19;98971.75;;;1.60;100.00
18697;BME280;22617;43.690;27.956;2024-01-16T20:46:24;98971.38;;;1.48;100.00
18697;BME280;22617;43.690;27.956;2024-01-16T20:51:29;98969.97;;;1.31;100.00
18697;BME280;22617;43.690;27.956;2024-01-16T20:56:33;98955.72;;;1.14;100.00
18697;BME280;22617;43.690;27.956;2024-01-16T21:01:38;98960.94;;;0.65;100.00
18697;BME280;22617;43.690;27.956;2024-01-16T21:06:41;98984.47;;;1.04;100.00
18697;BME280;22617;43.690;27.956;2024-01-16T21:11:45;98991.03;;;1.21;100.00
18697;BME280;22617;43.690;27.956;2024-01-16T21:16:50;98993.56;;;0.94;100.00
18697;BME280;22617;43.690;27.956;2024-01-16T21:21:54;99012.19;;;0.88;100.00
18697;BME280;22617;43.690;27.956;2024-01-16T21:26:57;99010.66;;;0.94;100.00
18697;BME280;22617;43.690;27.956;2024-01-16T21:32:02;99025.28;;;0.72;100.00
18697;BME280;22617;43.690;27.956;2024-01-16T21:37:06;99020.63;;;1.10;100.00
18697;BME280;22617;43.690;27.956;2024-01-16T21:42:10;99005.06;;;1.05;100.00
18697;BME280;22617;43.690;27.956;2024-01-16T21:47:15;99014.56;;;1.08;100.00
18697;BME280;22617;43.690;27.956;2024-01-16T21:52:25;99009.47;;;1.09;100.00
18697;BME280;22617;43.690;27.956;2024-01-16T21:57:28;99029.22;;;1.12;100.00
18697;BME280;22617;43.690;27.956;2024-01-16T22:02:35;99030.25;;;1.17;100.00
18697;BME280;22617;43.690;27.956;2024-01-16T22:07:39;99036.69;;;1.04;100.00
18697;BME280;22617;43.690;27.956;2024-01-16T22:12:43;99032.75;;;1.15;100.00
18697;BME280;22617;43.690;27.956;2024-01-16T22:17:48;99026.72;;;1.13;100.00
18697;BME280;22617;43.690;27.956;2024-01-16T22:22:51;99016.66;;;0.94;100.00
18697;BME280;22617;43.690;27.956;2024-01-16T22:27:55;99017.09;;;0.57;100.00
18697;BME280;22617;43.690;27.956;2024-01-16T22:33:00;99000.03;;;0.59;100.00
18697;BME280;22617;43.690;27.956;2024-01-16T22:38:06;98998.00;;;0.74;100.00
18697;BME280;22617;43.690;27.956;2024-01-16T22:43:09;98992.97;;;0.77;100.00
18697;BME280;22617;43.690;27.956;2024-01-16T22:48:14;98994.50;;;0.72;100.00
18697;BME280;22617;43.690;27.956;2024-01-16T22:53:18;99000.66;;;0.76;100.00
18697;BME280;22617;43.690;27.956;2024-01-16T22:58:21;99003.09;;;0.73;100.00
18697;BME280;22617;43.690;27.956;2024-01-16T23:03:26;99005.56;;;0.70;100.00
18697;BME280;22617;43.690;27.956;2024-01-16T23:08:31;99006.09;;;0.85;100.00
18697;BME280;22617;43.690;27.956;2024-01-16T23:13:35;98996.16;;;0.70;100.00
18697;BME280;22617;43.690;27.956;2024-01-16T23:18:40;99004.59;;;0.66;100.00
18697;BME280;22617;43.690;27.956;2024-01-16T23:23:44;98997.72;;;0.41;100.00
18697;BME280;22617;43.690;27.956;2024-01-16T23:28:47;99002.63;;;0.35;100.00
18697;BME280;22617;43.690;27.956;2024-01-16T23:33:52;98992.66;;;0.68;100.00
18697;BME280;22617;43.690;27.956;2024-01-16T23:38:56;98996.13;;;0.45;100.00
18697;BME280;22617;43.690;27.956;2024-01-16T23:44:00;98998.09;;;0.05;100.00
18697;BME280;22617;43.690;27.956;2024-01-16T23:49:05;98992.72;;;-0.02;100.00
18697;BME280;22617;43.690;27.956;2024-01-16T23:54:09;98999.09;;;0.10;100.00
18697;BME280;22617;43.690;27.956;2024-01-16T23:59:13;98991.09;;;0.24;100.00
